Terminal Aerodrome Forecast
Issued by NWS

Home | Current Version | Previous Version | Graphics & Text | Print | Product List | Glossary On
Versions: 1 2 3 4 5 6 7 8 9 10 11 12 13 14 15 16 17 18 19 20 21 22 23 24
000
FTUS43 KBIS 221337 AAA
TAFMOT
TAF AMD
KMOT 221337Z 2214/2312 14007KT P6SM VCSH BKN080 OVC110
      TEMPO 2214/2216 -FZRA BKN050
     FM221700 26008KT P6SM SCT090
     FM221900 30011KT P6SM SKC
     FM230000 29007KT P6SM SCT300
     FM230600 23004KT P6SM SCT020 SCT300=

USA.gov is the U.S. government's official web portal to all federal, state and local government web resources and services.